Hlavní strana
METAR-TAF:

METAR-TAF

Letiště :

Gamvik, Norsko

zeměpisná šířka: 71-02N, zeměpisná délka: 027-50E, výška: 1 m

Aktuální stav počasí

Zpráva byla vytvořena před 16 hodinami a 56 minutami, v 22:50 UTC
Jižní vítr 9 kt
Teplota -1°C
Vlhkost vzduchu 80%
Tlak 1000 hPa
Viditelnost 10 km a více
Oblačno až skoro zataženo ve výšce 3500 ft

METAR: ENMH 272250Z 17009KT 9999 BKN035 M01/M04 Q1000

Čas: 16:46 (15:46 UTC)


TAF: chybějící

Stav a předpovědi počasí z více než 4 000 letišť (zprávy METAR a TAF).

Červené a žluté tečky na mapě představují dostupné meteorologické stanice.

Když kurzor umístíte na tečku, zobrazí se název stanice.

Pak kliknutím zobrazíte stav a předpověď počasí.

Chcete-li změnit mapu, kliknutím na zelené tlačítko se znaménkem +mapu přiblížíte, kliknutím na zelené tlačítko se znaménkem – mapu oddálíte a kliknutím na zelené šipky přejdete na sousední mapy.


METAR-TAF: